sensor_id;sensor_type;location;lat;lon;timestamp;pressure;altitude;pressure_sealevel;temperature;humidity
39275;BME280;24980;48.874;2.332;2022-09-12T00:00:09;101081.50;;;26.60;43.80
39275;BME280;24980;48.874;2.332;2022-09-12T00:02:37;101084.53;;;26.58;43.82
39275;BME280;24980;48.874;2.332;2022-09-12T00:05:07;101083.44;;;26.58;43.85
39275;BME280;24980;48.874;2.332;2022-09-12T00:07:38;101079.55;;;26.57;43.90
39275;BME280;24980;48.874;2.332;2022-09-12T00:10:07;101077.02;;;26.56;43.94
39275;BME280;24980;48.874;2.332;2022-09-12T00:12:39;101078.25;;;26.55;43.98
39275;BME280;24980;48.874;2.332;2022-09-12T00:15:09;101075.72;;;26.54;44.02
39275;BME280;24980;48.874;2.332;2022-09-12T00:17:38;101072.59;;;26.53;44.00
39275;BME280;24980;48.874;2.332;2022-09-12T00:20:09;101071.88;;;26.52;44.00
39275;BME280;24980;48.874;2.332;2022-09-12T00:22:38;101071.47;;;26.51;43.99
39275;BME280;24980;48.874;2.332;2022-09-12T00:25:08;101067.17;;;26.49;43.97
39275;BME280;24980;48.874;2.332;2022-09-12T00:27:38;101059.43;;;26.46;43.94
39275;BME280;24980;48.874;2.332;2022-09-12T00:30:09;101055.77;;;26.44;43.93
39275;BME280;24980;48.874;2.332;2022-09-12T00:32:43;101059.53;;;26.43;43.90
39275;BME280;24980;48.874;2.332;2022-09-12T00:35:13;101051.88;;;26.41;43.89
39275;BME280;24980;48.874;2.332;2022-09-12T00:37:40;101052.28;;;26.39;43.87
39275;BME280;24980;48.874;2.332;2022-09-12T00:40:10;101052.73;;;26.37;43.84
39275;BME280;24980;48.874;2.332;2022-09-12T00:42:40;101046.34;;;26.35;43.83
39275;BME280;24980;48.874;2.332;2022-09-12T00:45:26;101041.09;;;26.34;43.84
39275;BME280;24980;48.874;2.332;2022-09-12T00:47:42;101032.91;;;26.33;43.83
39275;BME280;24980;48.874;2.332;2022-09-12T00:50:13;101030.98;;;26.31;43.84
39275;BME280;24980;48.874;2.332;2022-09-12T00:52:57;101031.77;;;26.30;43.84
39275;BME280;24980;48.874;2.332;2022-09-12T00:55:18;101032.16;;;26.29;43.83
39275;BME280;24980;48.874;2.332;2022-09-12T00:57:56;101025.80;;;26.28;43.85
39275;BME280;24980;48.874;2.332;2022-09-12T01:00:17;101026.09;;;26.27;43.84
39275;BME280;24980;48.874;2.332;2022-09-12T01:02:49;101023.44;;;26.25;43.85
39275;BME280;24980;48.874;2.332;2022-09-12T01:08:00;101023.17;;;26.23;43.85
39275;BME280;24980;48.874;2.332;2022-09-12T01:10:17;101025.83;;;26.21;43.85
39275;BME280;24980;48.874;2.332;2022-09-12T01:12:47;101025.09;;;26.20;43.85
39275;BME280;24980;48.874;2.332;2022-09-12T01:15:16;101020.98;;;26.19;43.85
39275;BME280;24980;48.874;2.332;2022-09-12T01:18:00;101016.67;;;26.17;43.83
39275;BME280;24980;48.874;2.332;2022-09-12T01:30:27;101010.79;;;26.11;43.84
39275;BME280;24980;48.874;2.332;2022-09-12T01:33:13;101005.84;;;26.09;43.84
39275;BME280;24980;48.874;2.332;2022-09-12T01:38:13;100997.59;;;26.07;43.85
39275;BME280;24980;48.874;2.332;2022-09-12T01:40:33;100995.56;;;26.06;43.85
39275;BME280;24980;48.874;2.332;2022-09-12T01:45:28;100989.71;;;26.03;43.85
39275;BME280;24980;48.874;2.332;2022-09-12T01:48:00;100990.66;;;26.02;43.87
39275;BME280;24980;48.874;2.332;2022-09-12T01:50:33;100991.09;;;26.02;43.86
39275;BME280;24980;48.874;2.332;2022-09-12T01:52:58;100987.48;;;26.01;43.86
39275;BME280;24980;48.874;2.332;2022-09-12T01:55:43;100990.31;;;25.99;43.88
39275;BME280;24980;48.874;2.332;2022-09-12T01:58:11;100991.78;;;25.98;43.89
39275;BME280;24980;48.874;2.332;2022-09-12T02:00:33;100990.41;;;25.96;43.90
39275;BME280;24980;48.874;2.332;2022-09-12T02:03:03;100990.33;;;25.95;43.90
39275;BME280;24980;48.874;2.332;2022-09-12T02:05:33;100986.23;;;25.94;43.91
39275;BME280;24980;48.874;2.332;2022-09-12T02:08:14;100990.41;;;25.92;43.92
39275;BME280;24980;48.874;2.332;2022-09-12T02:10:33;100994.49;;;25.92;43.93
39275;BME280;24980;48.874;2.332;2022-09-12T02:13:04;100989.55;;;25.91;43.94
39275;BME280;24980;48.874;2.332;2022-09-12T02:15:34;100983.10;;;25.90;43.94
39275;BME280;24980;48.874;2.332;2022-09-12T02:18:01;100987.53;;;25.89;43.95
39275;BME280;24980;48.874;2.332;2022-09-12T02:20:33;100981.23;;;25.87;43.96
39275;BME280;24980;48.874;2.332;2022-09-12T02:23:03;100980.80;;;25.88;43.98
39275;BME280;24980;48.874;2.332;2022-09-12T02:25:34;100979.20;;;25.87;43.99
39275;BME280;24980;48.874;2.332;2022-09-12T02:28:08;100974.55;;;25.86;44.00
39275;BME280;24980;48.874;2.332;2022-09-12T02:30:47;100973.08;;;25.84;44.02
39275;BME280;24980;48.874;2.332;2022-09-12T02:33:47;100969.01;;;25.84;44.03
39275;BME280;24980;48.874;2.332;2022-09-12T02:38:42;100966.50;;;25.82;44.11
39275;BME280;24980;48.874;2.332;2022-09-12T02:40:38;100963.78;;;25.82;44.14
39275;BME280;24980;48.874;2.332;2022-09-12T02:43:06;100962.65;;;25.81;44.17
39275;BME280;24980;48.874;2.332;2022-09-12T02:45:39;100961.39;;;25.80;44.18
39275;BME280;24980;48.874;2.332;2022-09-12T02:48:19;100959.54;;;25.79;44.19
39275;BME280;24980;48.874;2.332;2022-09-12T02:50:35;100951.78;;;25.77;44.19
39275;BME280;24980;48.874;2.332;2022-09-12T02:53:06;100946.30;;;25.76;44.19
39275;BME280;24980;48.874;2.332;2022-09-12T02:55:38;100947.37;;;25.75;44.20
39275;BME280;24980;48.874;2.332;2022-09-12T02:58:12;100945.95;;;25.73;44.21
39275;BME280;24980;48.874;2.332;2022-09-12T03:00:50;100941.21;;;25.72;44.21
39275;BME280;24980;48.874;2.332;2022-09-12T03:03:19;100937.53;;;25.71;44.21
39275;BME280;24980;48.874;2.332;2022-09-12T03:05:52;100935.60;;;25.69;44.21
39275;BME280;24980;48.874;2.332;2022-09-12T03:08:17;100935.73;;;25.68;44.20
39275;BME280;24980;48.874;2.332;2022-09-12T03:11:00;100935.34;;;25.67;44.20
39275;BME280;24980;48.874;2.332;2022-09-12T03:15:58;100929.20;;;25.65;44.20
39275;BME280;24980;48.874;2.332;2022-09-12T03:21:02;100927.38;;;25.63;44.20
39275;BME280;24980;48.874;2.332;2022-09-12T03:23:19;100926.59;;;25.61;44.23
39275;BME280;24980;48.874;2.332;2022-09-12T03:25:53;100930.50;;;25.61;44.29
39275;BME280;24980;48.874;2.332;2022-09-12T03:28:17;100923.72;;;25.61;44.34
39275;BME280;24980;48.874;2.332;2022-09-12T03:30:45;100917.02;;;25.60;44.37
39275;BME280;24980;48.874;2.332;2022-09-12T03:33:19;100918.14;;;25.59;44.38
39275;BME280;24980;48.874;2.332;2022-09-12T03:35:45;100915.13;;;25.58;44.42
39275;BME280;24980;48.874;2.332;2022-09-12T03:38:14;100912.94;;;25.58;44.48
39275;BME280;24980;48.874;2.332;2022-09-12T03:40:45;100908.95;;;25.57;44.50
39275;BME280;24980;48.874;2.332;2022-09-12T03:43:15;100909.78;;;25.56;44.50
39275;BME280;24980;48.874;2.332;2022-09-12T03:45:50;100910.81;;;25.55;44.48
39275;BME280;24980;48.874;2.332;2022-09-12T03:48:15;100907.69;;;25.54;44.47
39275;BME280;24980;48.874;2.332;2022-09-12T03:50:48;100904.78;;;25.52;44.47
39275;BME280;24980;48.874;2.332;2022-09-12T03:53:16;100903.53;;;25.51;44.47
39275;BME280;24980;48.874;2.332;2022-09-12T03:55:49;100902.19;;;25.50;44.46
39275;BME280;24980;48.874;2.332;2022-09-12T03:58:17;100901.27;;;25.49;44.47
39275;BME280;24980;48.874;2.332;2022-09-12T04:00:47;100906.47;;;25.47;44.45
39275;BME280;24980;48.874;2.332;2022-09-12T04:03:18;100912.55;;;25.46;44.45
39275;BME280;24980;48.874;2.332;2022-09-12T04:05:48;100914.27;;;25.45;44.44
39275;BME280;24980;48.874;2.332;2022-09-12T04:08:18;100918.01;;;25.44;44.44
39275;BME280;24980;48.874;2.332;2022-09-12T04:10:48;100915.02;;;25.42;44.44
39275;BME280;24980;48.874;2.332;2022-09-12T04:13:19;100914.72;;;25.40;44.45
39275;BME280;24980;48.874;2.332;2022-09-12T04:15:56;100913.41;;;25.39;44.46
39275;BME280;24980;48.874;2.332;2022-09-12T04:18:20;100913.25;;;25.38;44.47
39275;BME280;24980;48.874;2.332;2022-09-12T04:20:50;100915.89;;;25.38;44.48
39275;BME280;24980;48.874;2.332;2022-09-12T04:23:20;100921.52;;;25.37;44.50
39275;BME280;24980;48.874;2.332;2022-09-12T04:25:54;100926.05;;;25.36;44.54
39275;BME280;24980;48.874;2.332;2022-09-12T04:28:28;100921.75;;;25.35;44.59
39275;BME280;24980;48.874;2.332;2022-09-12T04:33:23;100920.03;;;25.33;44.61
39275;BME280;24980;48.874;2.332;2022-09-12T04:35:53;100916.56;;;25.32;44.60
39275;BME280;24980;48.874;2.332;2022-09-12T04:38:23;100914.80;;;25.31;44.60
39275;BME280;24980;48.874;2.332;2022-09-12T04:40:53;100913.33;;;25.29;44.58
39275;BME280;24980;48.874;2.332;2022-09-12T04:43:23;100916.91;;;25.28;44.58
39275;BME280;24980;48.874;2.332;2022-09-12T04:45:54;100916.00;;;25.27;44.58
39275;BME280;24980;48.874;2.332;2022-09-12T04:48:24;100916.72;;;25.26;44.59
39275;BME280;24980;48.874;2.332;2022-09-12T04:50:54;100912.58;;;25.25;44.60
39275;BME280;24980;48.874;2.332;2022-09-12T04:53:24;100909.71;;;25.24;44.64
39275;BME280;24980;48.874;2.332;2022-09-12T04:55:54;100908.48;;;25.24;44.65
39275;BME280;24980;48.874;2.332;2022-09-12T04:58:24;100902.14;;;25.22;44.67
39275;BME280;24980;48.874;2.332;2022-09-12T05:00:54;100899.20;;;25.21;44.69
39275;BME280;24980;48.874;2.332;2022-09-12T05:03:27;100902.00;;;25.21;44.69
39275;BME280;24980;48.874;2.332;2022-09-12T05:05:55;100896.80;;;25.19;44.69
39275;BME280;24980;48.874;2.332;2022-09-12T05:08:34;100896.29;;;25.19;44.69
39275;BME280;24980;48.874;2.332;2022-09-12T05:11:02;100894.25;;;25.16;44.71
39275;BME280;24980;48.874;2.332;2022-09-12T05:13:26;100893.16;;;25.15;44.71
39275;BME280;24980;48.874;2.332;2022-09-12T05:15:57;100885.70;;;25.15;44.72
39275;BME280;24980;48.874;2.332;2022-09-12T05:18:27;100891.18;;;25.14;44.73
39275;BME280;24980;48.874;2.332;2022-09-12T05:21:03;100888.42;;;25.11;44.74
39275;BME280;24980;48.874;2.332;2022-09-12T05:23:27;100894.23;;;25.10;44.76
39275;BME280;24980;48.874;2.332;2022-09-12T05:25:58;100897.12;;;25.10;44.79
39275;BME280;24980;48.874;2.332;2022-09-12T05:28:30;100894.33;;;25.10;44.82
39275;BME280;24980;48.874;2.332;2022-09-12T05:30:59;100898.33;;;25.09;44.83
39275;BME280;24980;48.874;2.332;2022-09-12T05:33:29;100897.08;;;25.08;44.84
39275;BME280;24980;48.874;2.332;2022-09-12T05:35:59;100901.94;;;25.07;44.87
39275;BME280;24980;48.874;2.332;2022-09-12T05:38:29;100898.31;;;25.07;44.89
39275;BME280;24980;48.874;2.332;2022-09-12T05:41:08;100900.35;;;25.06;44.90
39275;BME280;24980;48.874;2.332;2022-09-12T05:43:31;100891.98;;;25.05;44.91
39275;BME280;24980;48.874;2.332;2022-09-12T05:46:01;100896.38;;;25.05;44.93
39275;BME280;24980;48.874;2.332;2022-09-12T05:48:32;100895.28;;;25.05;44.93
39275;BME280;24980;48.874;2.332;2022-09-12T05:51:04;100898.77;;;25.04;44.93
39275;BME280;24980;48.874;2.332;2022-09-12T05:53:32;100899.58;;;25.04;44.95
39275;BME280;24980;48.874;2.332;2022-09-12T05:56:14;100902.64;;;25.03;45.01
39275;BME280;24980;48.874;2.332;2022-09-12T05:58:37;100906.28;;;25.03;45.05
39275;BME280;24980;48.874;2.332;2022-09-12T06:01:06;100905.53;;;25.02;45.10
39275;BME280;24980;48.874;2.332;2022-09-12T06:03:38;100904.34;;;25.03;45.15
39275;BME280;24980;48.874;2.332;2022-09-12T06:06:06;100901.88;;;25.03;45.20
39275;BME280;24980;48.874;2.332;2022-09-12T06:08:41;100898.58;;;25.02;45.25
39275;BME280;24980;48.874;2.332;2022-09-12T06:11:14;100895.70;;;25.02;45.25
39275;BME280;24980;48.874;2.332;2022-09-12T06:13:38;100893.72;;;25.01;45.23
39275;BME280;24980;48.874;2.332;2022-09-12T06:16:16;100898.15;;;24.99;45.23
39275;BME280;24980;48.874;2.332;2022-09-12T06:18:38;100903.50;;;24.99;45.22
39275;BME280;24980;48.874;2.332;2022-09-12T06:21:10;100903.38;;;24.98;45.22
39275;BME280;24980;48.874;2.332;2022-09-12T06:23:39;100904.48;;;24.97;45.21
39275;BME280;24980;48.874;2.332;2022-09-12T06:26:10;100905.78;;;24.96;45.19
39275;BME280;24980;48.874;2.332;2022-09-12T06:28:41;100907.78;;;24.95;45.18
39275;BME280;24980;48.874;2.332;2022-09-12T06:31:13;100912.70;;;24.94;45.18
39275;BME280;24980;48.874;2.332;2022-09-12T06:33:44;100912.39;;;24.93;45.17
39275;BME280;24980;48.874;2.332;2022-09-12T06:36:17;100914.18;;;24.92;45.16
39275;BME280;24980;48.874;2.332;2022-09-12T06:38:43;100915.50;;;24.91;45.15
39275;BME280;24980;48.874;2.332;2022-09-12T06:41:13;100911.19;;;24.90;45.15
39275;BME280;24980;48.874;2.332;2022-09-12T06:43:50;100916.11;;;24.90;45.18
39275;BME280;24980;48.874;2.332;2022-09-12T06:46:15;100911.95;;;24.87;45.20
39275;BME280;24980;48.874;2.332;2022-09-12T06:48:45;100913.97;;;24.87;45.21
39275;BME280;24980;48.874;2.332;2022-09-12T06:51:17;100912.80;;;24.86;45.21
39275;BME280;24980;48.874;2.332;2022-09-12T06:53:46;100917.39;;;24.85;45.21
39275;BME280;24980;48.874;2.332;2022-09-12T06:56:18;100916.75;;;24.85;45.19
39275;BME280;24980;48.874;2.332;2022-09-12T06:58:48;100912.95;;;24.84;45.20
39275;BME280;24980;48.874;2.332;2022-09-12T07:01:19;100906.09;;;24.83;45.19
39275;BME280;24980;48.874;2.332;2022-09-12T07:03:53;100907.45;;;24.83;45.20
39275;BME280;24980;48.874;2.332;2022-09-12T07:06:20;100903.64;;;24.83;45.20
39275;BME280;24980;48.874;2.332;2022-09-12T07:08:49;100902.98;;;24.82;45.21
39275;BME280;24980;48.874;2.332;2022-09-12T07:11:23;100902.66;;;24.80;45.22
39275;BME280;24980;48.874;2.332;2022-09-12T07:13:52;100906.97;;;24.77;45.23
39275;BME280;24980;48.874;2.332;2022-09-12T07:16:22;100911.89;;;24.77;45.20
39275;BME280;24980;48.874;2.332;2022-09-12T07:18:53;100909.17;;;24.77;45.24
39275;BME280;24980;48.874;2.332;2022-09-12T07:21:27;100912.08;;;24.76;45.28
39275;BME280;24980;48.874;2.332;2022-09-12T07:23:55;100907.64;;;24.75;45.30
39275;BME280;24980;48.874;2.332;2022-09-12T07:26:25;100910.42;;;24.75;45.32
39275;BME280;24980;48.874;2.332;2022-09-12T07:28:55;100903.09;;;24.76;45.35
39275;BME280;24980;48.874;2.332;2022-09-12T07:31:25;100899.70;;;24.76;45.40
39275;BME280;24980;48.874;2.332;2022-09-12T07:33:54;100903.76;;;24.77;45.45
39275;BME280;24980;48.874;2.332;2022-09-12T07:36:24;100903.83;;;24.78;45.49
39275;BME280;24980;48.874;2.332;2022-09-12T07:38:59;100909.28;;;24.79;45.54
39275;BME280;24980;48.874;2.332;2022-09-12T07:41:27;100903.52;;;24.80;45.58
39275;BME280;24980;48.874;2.332;2022-09-12T07:44:00;100905.34;;;24.82;45.63
39275;BME280;24980;48.874;2.332;2022-09-12T07:46:27;100906.69;;;24.83;45.69
39275;BME280;24980;48.874;2.332;2022-09-12T07:49:04;100897.67;;;24.85;45.75
39275;BME280;24980;48.874;2.332;2022-09-12T07:51:28;100907.64;;;24.85;45.82
39275;BME280;24980;48.874;2.332;2022-09-12T07:53:58;100909.55;;;24.88;45.87
39275;BME280;24980;48.874;2.332;2022-09-12T07:56:28;100909.44;;;24.92;45.92
39275;BME280;24980;48.874;2.332;2022-09-12T07:58:59;100908.41;;;24.96;45.98
39275;BME280;24980;48.874;2.332;2022-09-12T08:01:29;100910.37;;;24.99;46.08
39275;BME280;24980;48.874;2.332;2022-09-12T08:03:59;100908.26;;;25.02;46.18
39275;BME280;24980;48.874;2.332;2022-09-12T08:06:30;100909.08;;;25.03;46.28
39275;BME280;24980;48.874;2.332;2022-09-12T08:08:59;100902.92;;;25.05;46.35
39275;BME280;24980;48.874;2.332;2022-09-12T08:11:29;100902.64;;;25.06;46.41
39275;BME280;24980;48.874;2.332;2022-09-12T08:14:07;100904.28;;;25.08;46.46
39275;BME280;24980;48.874;2.332;2022-09-12T08:16:32;100902.47;;;25.10;46.50
39275;BME280;24980;48.874;2.332;2022-09-12T08:19:02;100904.34;;;25.12;46.54
39275;BME280;24980;48.874;2.332;2022-09-12T08:21:32;100898.81;;;25.14;46.58
39275;BME280;24980;48.874;2.332;2022-09-12T08:24:03;100903.34;;;25.15;46.62
39275;BME280;24980;48.874;2.332;2022-09-12T08:26:34;100906.83;;;25.17;46.66
39275;BME280;24980;48.874;2.332;2022-09-12T08:29:03;100907.31;;;25.19;46.71
39275;BME280;24980;48.874;2.332;2022-09-12T08:31:33;100906.81;;;25.22;46.78
39275;BME280;24980;48.874;2.332;2022-09-12T08:34:04;100907.73;;;25.23;46.87
39275;BME280;24980;48.874;2.332;2022-09-12T08:36:34;100902.83;;;25.25;46.96
39275;BME280;24980;48.874;2.332;2022-09-12T08:39:06;100904.41;;;25.27;47.04
39275;BME280;24980;48.874;2.332;2022-09-12T08:41:39;100897.92;;;25.27;47.09
39275;BME280;24980;48.874;2.332;2022-09-12T08:46:46;100897.16;;;25.28;47.13
39275;BME280;24980;48.874;2.332;2022-09-12T08:49:09;100897.58;;;25.27;47.14
39275;BME280;24980;48.874;2.332;2022-09-12T08:51:47;100900.80;;;25.27;47.15
39275;BME280;24980;48.874;2.332;2022-09-12T08:54:22;100901.12;;;25.29;47.18
39275;BME280;24980;48.874;2.332;2022-09-12T08:56:40;100902.05;;;25.32;47.21
39275;BME280;24980;48.874;2.332;2022-09-12T08:59:07;100905.39;;;25.34;47.24
39275;BME280;24980;48.874;2.332;2022-09-12T09:01:41;100906.19;;;25.36;47.29
39275;BME280;24980;48.874;2.332;2022-09-12T09:09:23;100899.66;;;25.43;47.38
39275;BME280;24980;48.874;2.332;2022-09-12T09:16:42;100891.52;;;25.48;47.49
39275;BME280;24980;48.874;2.332;2022-09-12T09:19:17;100886.80;;;25.51;47.53
39275;BME280;24980;48.874;2.332;2022-09-12T09:24:15;100880.95;;;25.57;47.56
39275;BME280;24980;48.874;2.332;2022-09-12T09:26:52;100873.78;;;25.59;47.59
39275;BME280;24980;48.874;2.332;2022-09-12T09:31:45;100860.73;;;25.63;47.71
39275;BME280;24980;48.874;2.332;2022-09-12T09:34:23;100862.83;;;25.65;47.76
39275;BME280;24980;48.874;2.332;2022-09-12T09:37:13;100867.95;;;25.66;47.80
39275;BME280;24980;48.874;2.332;2022-09-12T09:42:10;100862.22;;;25.68;47.87
39275;BME280;24980;48.874;2.332;2022-09-12T09:44:15;100857.49;;;25.70;47.91
39275;BME280;24980;48.874;2.332;2022-09-12T09:46:45;100857.80;;;25.72;47.95
39275;BME280;24980;48.874;2.332;2022-09-12T09:49:16;100856.22;;;25.73;47.99
39275;BME280;24980;48.874;2.332;2022-09-12T09:51:44;100854.59;;;25.77;48.03
39275;BME280;24980;48.874;2.332;2022-09-12T09:54:27;100854.91;;;25.80;48.06
39275;BME280;24980;48.874;2.332;2022-09-12T09:56:46;100852.03;;;25.82;48.08
39275;BME280;24980;48.874;2.332;2022-09-12T09:59:25;100850.84;;;25.85;48.11
39275;BME280;24980;48.874;2.332;2022-09-12T10:04:22;100847.40;;;25.90;48.12
39275;BME280;24980;48.874;2.332;2022-09-12T10:06:55;100848.77;;;25.92;48.11
39275;BME280;24980;48.874;2.332;2022-09-12T10:09:20;100838.33;;;25.94;48.12
39275;BME280;24980;48.874;2.332;2022-09-12T10:11:49;100832.80;;;25.98;48.12
39275;BME280;24980;48.874;2.332;2022-09-12T10:14:37;100822.73;;;26.00;48.13
39275;BME280;24980;48.874;2.332;2022-09-12T10:16:50;100821.30;;;26.02;48.14
39275;BME280;24980;48.874;2.332;2022-09-12T10:19:35;100824.69;;;26.05;48.16
39275;BME280;24980;48.874;2.332;2022-09-12T10:21:52;100822.09;;;26.07;48.19
39275;BME280;24980;48.874;2.332;2022-09-12T10:24:24;100823.81;;;26.09;48.23
39275;BME280;24980;48.874;2.332;2022-09-12T10:29:24;100820.68;;;26.11;48.29
39275;BME280;24980;48.874;2.332;2022-09-12T10:31:56;100823.34;;;26.13;48.29
39275;BME280;24980;48.874;2.332;2022-09-12T10:34:32;100819.45;;;26.15;48.27
39275;BME280;24980;48.874;2.332;2022-09-12T10:37:02;100823.70;;;26.19;48.26
39275;BME280;24980;48.874;2.332;2022-09-12T10:39:28;100817.58;;;26.22;48.24
39275;BME280;24980;48.874;2.332;2022-09-12T10:41:57;100816.04;;;26.24;48.22
39275;BME280;24980;48.874;2.332;2022-09-12T10:44:30;100816.80;;;26.27;48.22
39275;BME280;24980;48.874;2.332;2022-09-12T10:46:55;100818.04;;;26.29;48.21
39275;BME280;24980;48.874;2.332;2022-09-12T10:49:30;100818.41;;;26.30;48.21
39275;BME280;24980;48.874;2.332;2022-09-12T10:51:57;100818.11;;;26.32;48.20
39275;BME280;24980;48.874;2.332;2022-09-12T10:54:29;100808.02;;;26.33;48.18
39275;BME280;24980;48.874;2.332;2022-09-12T10:57:26;100808.30;;;26.36;48.16
39275;BME280;24980;48.874;2.332;2022-09-12T10:59:52;100804.48;;;26.38;48.16
39275;BME280;24980;48.874;2.332;2022-09-12T11:02:08;100808.38;;;26.41;48.12
39275;BME280;24980;48.874;2.332;2022-09-12T11:07:21;100811.50;;;26.46;48.09
39275;BME280;24980;48.874;2.332;2022-09-12T11:12:23;100800.84;;;26.50;48.05
39275;BME280;24980;48.874;2.332;2022-09-12T11:19:43;100807.61;;;26.56;48.00
39275;BME280;24980;48.874;2.332;2022-09-12T11:22:26;100807.91;;;26.58;48.00
39275;BME280;24980;48.874;2.332;2022-09-12T11:34:48;100795.06;;;26.73;48.05
39275;BME280;24980;48.874;2.332;2022-09-12T11:37:36;100785.44;;;26.76;48.04
39275;BME280;24980;48.874;2.332;2022-09-12T11:39:44;100776.50;;;26.78;48.01
39275;BME280;24980;48.874;2.332;2022-09-12T11:42:15;100768.86;;;26.81;47.99
39275;BME280;24980;48.874;2.332;2022-09-12T11:44:47;100769.23;;;26.83;47.94
39275;BME280;24980;48.874;2.332;2022-09-12T11:47:10;100768.36;;;26.86;47.92
39275;BME280;24980;48.874;2.332;2022-09-12T11:49:42;100768.37;;;26.88;47.89
39275;BME280;24980;48.874;2.332;2022-09-12T11:52:14;100762.89;;;26.89;47.87
39275;BME280;24980;48.874;2.332;2022-09-12T11:54:52;100756.68;;;26.91;47.83
39275;BME280;24980;48.874;2.332;2022-09-12T11:57:22;100753.91;;;26.93;47.83
39275;BME280;24980;48.874;2.332;2022-09-12T11:59:51;100750.60;;;26.95;47.79
39275;BME280;24980;48.874;2.332;2022-09-12T12:02:29;100744.55;;;26.96;47.75
39275;BME280;24980;48.874;2.332;2022-09-12T12:04:55;100745.73;;;26.98;47.74
39275;BME280;24980;48.874;2.332;2022-09-12T12:07:13;100747.39;;;27.00;47.70
39275;BME280;24980;48.874;2.332;2022-09-12T12:09:51;100745.34;;;27.02;47.68
39275;BME280;24980;48.874;2.332;2022-09-12T12:12:15;100738.45;;;27.04;47.67
39275;BME280;24980;48.874;2.332;2022-09-12T12:14:45;100735.36;;;27.05;47.65
39275;BME280;24980;48.874;2.332;2022-09-12T12:17:16;100734.59;;;27.05;47.66
39275;BME280;24980;48.874;2.332;2022-09-12T12:19:46;100736.36;;;27.06;47.67
39275;BME280;24980;48.874;2.332;2022-09-12T12:22:19;100733.63;;;27.06;47.68
39275;BME280;24980;48.874;2.332;2022-09-12T12:25:21;100733.30;;;27.08;47.67
39275;BME280;24980;48.874;2.332;2022-09-12T12:27:43;100735.56;;;27.09;47.66
39275;BME280;24980;48.874;2.332;2022-09-12T12:29:49;100742.55;;;27.11;47.64
39275;BME280;24980;48.874;2.332;2022-09-12T12:32:19;100744.02;;;27.13;47.64
39275;BME280;24980;48.874;2.332;2022-09-12T12:34:50;100739.50;;;27.15;47.67
39275;BME280;24980;48.874;2.332;2022-09-12T12:39:56;100736.22;;;27.21;47.67
39275;BME280;24980;48.874;2.332;2022-09-12T12:44:51;100733.25;;;27.26;47.58
39275;BME280;24980;48.874;2.332;2022-09-12T12:47:34;100735.02;;;27.28;47.55
39275;BME280;24980;48.874;2.332;2022-09-12T12:49:55;100733.57;;;27.30;47.50
39275;BME280;24980;48.874;2.332;2022-09-12T12:52:19;100739.09;;;27.33;47.46
39275;BME280;24980;48.874;2.332;2022-09-12T12:54:51;100736.72;;;27.35;47.42
39275;BME280;24980;48.874;2.332;2022-09-12T12:57:36;100730.86;;;27.36;47.37
39275;BME280;24980;48.874;2.332;2022-09-12T13:00:06;100735.17;;;27.39;47.34
39275;BME280;24980;48.874;2.332;2022-09-12T13:02:40;100734.55;;;27.42;47.32
39275;BME280;24980;48.874;2.332;2022-09-12T13:04:53;100731.47;;;27.44;47.31
39275;BME280;24980;48.874;2.332;2022-09-12T13:07:29;100725.69;;;27.46;47.30
39275;BME280;24980;48.874;2.332;2022-09-12T13:09:53;100719.76;;;27.47;47.30
39275;BME280;24980;48.874;2.332;2022-09-12T13:12:31;100714.98;;;27.50;47.29
39275;BME280;24980;48.874;2.332;2022-09-12T13:14:58;100717.91;;;27.52;47.26
39275;BME280;24980;48.874;2.332;2022-09-12T13:17:39;100712.54;;;27.54;47.25
39275;BME280;24980;48.874;2.332;2022-09-12T13:20:06;100713.05;;;27.55;47.25
39275;BME280;24980;48.874;2.332;2022-09-12T13:22:40;100717.09;;;27.57;47.21
39275;BME280;24980;48.874;2.332;2022-09-12T13:24:56;100710.25;;;27.58;47.20
39275;BME280;24980;48.874;2.332;2022-09-12T13:27:26;100705.86;;;27.59;47.18
39275;BME280;24980;48.874;2.332;2022-09-12T13:30:13;100701.34;;;27.59;47.16
39275;BME280;24980;48.874;2.332;2022-09-12T13:32:26;100697.64;;;27.60;47.14
39275;BME280;24980;48.874;2.332;2022-09-12T13:35:17;100693.54;;;27.61;47.13
39275;BME280;24980;48.874;2.332;2022-09-12T13:37:53;100685.36;;;27.62;47.11
39275;BME280;24980;48.874;2.332;2022-09-12T13:40:25;100681.91;;;27.64;47.10
39275;BME280;24980;48.874;2.332;2022-09-12T13:42:47;100664.98;;;27.65;47.09
39275;BME280;24980;48.874;2.332;2022-09-12T13:45:03;100663.48;;;27.67;47.08
39275;BME280;24980;48.874;2.332;2022-09-12T13:47:34;100659.08;;;27.68;47.08
39275;BME280;24980;48.874;2.332;2022-09-12T13:50:02;100662.06;;;27.70;47.09
39275;BME280;24980;48.874;2.332;2022-09-12T13:52:33;100669.98;;;27.72;47.09
39275;BME280;24980;48.874;2.332;2022-09-12T13:55:06;100664.66;;;27.74;47.09
39275;BME280;24980;48.874;2.332;2022-09-12T13:57:38;100665.66;;;27.76;47.10
39275;BME280;24980;48.874;2.332;2022-09-12T14:00:17;100663.70;;;27.78;47.10
39275;BME280;24980;48.874;2.332;2022-09-12T14:02:35;100659.45;;;27.80;47.10
39275;BME280;24980;48.874;2.332;2022-09-12T14:05:16;100664.23;;;27.82;47.11
39275;BME280;24980;48.874;2.332;2022-09-12T14:07:37;100667.33;;;27.84;47.13
39275;BME280;24980;48.874;2.332;2022-09-12T14:10:04;100665.79;;;27.85;47.14
39275;BME280;24980;48.874;2.332;2022-09-12T14:12:37;100661.14;;;27.87;47.15
39275;BME280;24980;48.874;2.332;2022-09-12T14:15:06;100656.45;;;27.89;47.18
39275;BME280;24980;48.874;2.332;2022-09-12T14:17:39;100653.95;;;27.91;47.23
39275;BME280;24980;48.874;2.332;2022-09-12T14:20:11;100646.02;;;27.93;47.30
39275;BME280;24980;48.874;2.332;2022-09-12T14:22:42;100641.90;;;27.94;47.38